createdAt,value
2023-04-26T00:00:08.920Z,8.78
2023-04-26T00:02:38.656Z,9.04
2023-04-26T00:05:09.570Z,8.98
2023-04-26T00:07:39.231Z,9.06
2023-04-26T00:10:08.626Z,9.05
2023-04-26T00:12:37.096Z,8.98
2023-04-26T00:15:05.831Z,8.88
2023-04-26T00:17:34.177Z,8.81
2023-04-26T00:20:04.368Z,8.84
2023-04-26T00:22:32.665Z,8.75
2023-04-26T00:25:00.792Z,8.70
2023-04-26T00:27:28.998Z,8.70
2023-04-26T00:29:57.169Z,8.67
2023-04-26T00:32:25.412Z,8.65
2023-04-26T00:34:53.678Z,8.60
2023-04-26T00:37:23.439Z,8.54
2023-04-26T00:39:51.595Z,8.32
2023-04-26T00:42:20.687Z,8.37
2023-04-26T00:44:50.409Z,8.34
2023-04-26T00:47:18.711Z,8.29
2023-04-26T00:49:47.022Z,8.26
2023-04-26T00:52:15.515Z,8.20
2023-04-26T00:54:45.239Z,8.08
2023-04-26T00:57:13.902Z,7.67
2023-04-26T00:59:42.402Z,8.20
2023-04-26T01:02:10.673Z,7.69
2023-04-26T01:04:39.895Z,7.73
2023-04-26T01:07:08.330Z,8.23
2023-04-26T01:09:36.471Z,8.00
2023-04-26T01:12:07.489Z,7.98
2023-04-26T01:14:37.167Z,7.91
2023-04-26T01:17:06.310Z,7.70
2023-04-26T01:19:37.531Z,7.72
2023-04-26T01:22:05.748Z,7.79
2023-04-26T01:24:36.852Z,7.85
2023-04-26T01:27:05.236Z,7.87
2023-04-26T01:29:33.528Z,7.85
2023-04-26T01:32:01.699Z,7.89
2023-04-26T01:34:29.973Z,7.94
2023-04-26T01:36:58.174Z,7.89
2023-04-26T01:39:26.376Z,7.56
2023-04-26T01:41:56.224Z,7.63
2023-04-26T01:44:24.367Z,7.52
2023-04-26T01:46:52.502Z,7.44
2023-04-26T01:49:20.826Z,7.76
2023-04-26T01:51:48.954Z,7.82
2023-04-26T01:54:17.146Z,7.74
2023-04-26T01:56:45.276Z,7.75
2023-04-26T01:59:15.194Z,7.68
2023-04-26T02:01:43.626Z,7.60
2023-04-26T02:04:11.921Z,7.69
2023-04-26T02:06:41.779Z,7.34
2023-04-26T02:09:10.253Z,6.78
2023-04-26T02:11:38.377Z,7.19
2023-04-26T02:14:06.550Z,7.34
2023-04-26T02:16:36.558Z,7.38
2023-04-26T02:19:05.410Z,7.41
2023-04-26T02:21:33.598Z,7.25
2023-04-26T02:24:01.713Z,7.36
2023-04-26T02:26:29.911Z,7.40
2023-04-26T02:28:58.036Z,7.43
2023-04-26T02:31:26.209Z,7.43
2023-04-26T02:33:56.475Z,7.41
2023-04-26T02:36:24.631Z,7.45
2023-04-26T02:38:53.158Z,7.43
2023-04-26T02:41:21.984Z,7.44
2023-04-26T02:43:50.112Z,7.47
2023-04-26T02:46:18.375Z,7.49
2023-04-26T02:48:46.517Z,7.34
2023-04-26T02:51:16.180Z,7.36
2023-04-26T02:53:44.292Z,7.43
2023-04-26T02:56:12.385Z,7.30
2023-04-26T02:58:40.501Z,7.44
2023-04-26T03:01:08.838Z,7.31
2023-04-26T03:03:37.607Z,7.26
2023-04-26T03:06:06.522Z,7.23
2023-04-26T03:08:36.792Z,7.33
2023-04-26T03:11:04.979Z,7.29
2023-04-26T03:13:33.102Z,7.14
2023-04-26T03:16:01.321Z,7.13
2023-04-26T03:18:29.599Z,7.14
2023-04-26T03:20:57.765Z,7.12
2023-04-26T03:23:26.023Z,7.19
2023-04-26T03:25:55.769Z,6.91
2023-04-26T03:28:23.929Z,6.79
2023-04-26T03:30:52.121Z,6.76
2023-04-26T03:33:20.261Z,6.78
2023-04-26T03:35:48.398Z,6.52
2023-04-26T03:38:16.606Z,6.69
2023-04-26T03:40:44.830Z,6.44
2023-04-26T03:43:14.402Z,6.64
2023-04-26T03:45:42.668Z,6.51
2023-04-26T03:48:10.905Z,6.61
2023-04-26T03:50:39.645Z,6.63
2023-04-26T03:53:07.874Z,6.57
2023-04-26T03:55:36.099Z,6.63
2023-04-26T03:58:07.912Z,6.45
2023-04-26T04:00:38.825Z,6.53
2023-04-26T04:03:07.717Z,6.75
2023-04-26T04:05:36.333Z,6.07
2023-04-26T04:08:04.559Z,6.88
2023-04-26T04:10:32.758Z,6.95
2023-04-26T04:13:00.895Z,6.95
2023-04-26T04:15:29.085Z,7.06
2023-04-26T04:17:58.685Z,6.92
2023-04-26T04:20:26.939Z,6.80
2023-04-26T04:22:55.425Z,6.58
2023-04-26T04:25:24.955Z,5.97
2023-04-26T04:27:53.501Z,6.44
2023-04-26T04:30:21.711Z,6.82
2023-04-26T04:32:50.312Z,7.02
2023-04-26T04:35:19.998Z,7.05
2023-04-26T04:37:50.232Z,7.20
2023-04-26T04:40:18.554Z,7.31
2023-04-26T04:42:47.216Z,7.12
2023-04-26T04:45:16.112Z,7.21
2023-04-26T04:47:45.463Z,7.23
2023-04-26T04:50:14.586Z,7.72
2023-04-26T04:52:44.474Z,7.43
2023-04-26T04:55:12.743Z,8.01
2023-04-26T04:57:43.127Z,8.29
2023-04-26T05:00:13.201Z,8.12
2023-04-26T05:02:41.567Z,8.99
2023-04-26T05:05:10.818Z,9.13
2023-04-26T05:07:39.227Z,9.11
2023-04-26T05:10:09.780Z,9.06
2023-04-26T05:12:38.266Z,9.04
2023-04-26T05:15:07.599Z,8.90
2023-04-26T05:17:35.932Z,8.70
2023-04-26T05:20:07.567Z,8.87
2023-04-26T05:22:37.077Z,8.76
2023-04-26T05:25:06.010Z,8.67
2023-04-26T05:27:36.877Z,8.70
2023-04-26T05:30:05.990Z,8.58
2023-04-26T05:32:34.189Z,8.54
2023-04-26T05:35:02.835Z,8.53
2023-04-26T05:37:31.811Z,8.38
2023-04-26T05:40:00.372Z,8.58
2023-04-26T05:42:28.592Z,8.34
2023-04-26T05:45:00.216Z,8.79
2023-04-26T05:47:28.546Z,8.79
2023-04-26T05:49:56.723Z,8.82
2023-04-26T05:52:24.869Z,8.90
2023-04-26T05:54:53.051Z,9.00
2023-04-26T05:57:21.261Z,8.51
2023-04-26T05:59:49.471Z,8.17
2023-04-26T06:02:19.133Z,8.83
2023-04-26T06:04:47.581Z,8.81
2023-04-26T06:07:16.125Z,8.73
2023-04-26T06:09:44.705Z,8.78
2023-04-26T06:12:12.888Z,9.17
2023-04-26T06:14:41.136Z,9.38
2023-04-26T06:17:09.703Z,9.61
2023-04-26T06:19:39.369Z,9.87
2023-04-26T06:22:07.519Z,9.91
2023-04-26T06:24:35.713Z,9.86
2023-04-26T06:27:03.909Z,9.99
2023-04-26T06:29:34.454Z,10.13
2023-04-26T06:32:02.715Z,10.31
2023-04-26T06:34:31.281Z,10.34
2023-04-26T06:37:01.083Z,10.62
2023-04-26T06:39:29.265Z,10.69
2023-04-26T06:41:57.534Z,10.71
2023-04-26T06:44:25.828Z,10.74
2023-04-26T06:46:55.678Z,10.83
2023-04-26T06:49:24.139Z,10.95
2023-04-26T06:51:53.298Z,10.71
2023-04-26T06:54:22.942Z,10.87
2023-04-26T06:56:51.196Z,10.89
2023-04-26T06:59:19.379Z,10.84
2023-04-26T07:01:47.741Z,11.07
2023-04-26T07:04:18.458Z,11.27
2023-04-26T07:06:46.986Z,11.55
2023-04-26T07:09:15.273Z,11.79
2023-04-26T07:11:47.626Z,12.11
2023-04-26T07:14:15.843Z,12.21
2023-04-26T07:16:44.590Z,11.86
2023-04-26T07:19:13.109Z,11.21
2023-04-26T07:21:41.587Z,12.01
2023-04-26T07:24:09.956Z,11.93
2023-04-26T07:26:38.311Z,12.02
2023-04-26T07:29:08.008Z,11.97
2023-04-26T07:31:37.094Z,11.74
2023-04-26T07:34:05.243Z,11.76
2023-04-26T07:36:33.445Z,11.67
2023-04-26T07:39:01.671Z,12.02
2023-04-26T07:41:29.853Z,12.04
2023-04-26T07:43:59.288Z,12.20
2023-04-26T07:46:28.900Z,12.16
2023-04-26T07:48:57.117Z,12.22
2023-04-26T07:51:25.360Z,12.29
2023-04-26T07:53:53.901Z,12.25
2023-04-26T07:56:24.139Z,12.24
2023-04-26T07:58:52.418Z,12.37
2023-04-26T08:01:20.640Z,12.10
2023-04-26T08:03:50.516Z,12.16
2023-04-26T08:06:19.198Z,12.09
2023-04-26T08:08:50.766Z,12.26
2023-04-26T08:11:19.303Z,12.15
2023-04-26T08:13:47.596Z,12.04
2023-04-26T08:16:16.866Z,11.86
2023-04-26T08:18:46.930Z,12.08
2023-04-26T08:21:16.916Z,12.05
2023-04-26T08:23:45.202Z,12.25
2023-04-26T08:26:13.625Z,12.42
2023-04-26T08:28:41.788Z,12.43
2023-04-26T08:31:10.395Z,12.22
2023-04-26T08:33:38.601Z,12.85
2023-04-26T08:36:07.549Z,13.07
2023-04-26T08:38:37.170Z,13.12
2023-04-26T08:41:06.409Z,13.13
2023-04-26T08:43:37.854Z,12.89
2023-04-26T08:46:12.574Z,13.23
2023-04-26T08:48:42.056Z,13.28
2023-04-26T08:51:14.294Z,13.30
2023-04-26T08:53:44.627Z,13.03
2023-04-26T08:56:14.645Z,12.91
2023-04-26T08:58:43.360Z,12.86
2023-04-26T09:03:43.791Z,13.15
2023-04-26T09:06:13.200Z,12.87
2023-04-26T09:08:44.667Z,12.73
2023-04-26T09:11:13.057Z,12.62
2023-04-26T09:13:41.276Z,12.64
2023-04-26T09:16:10.100Z,12.66
2023-04-26T09:18:51.594Z,12.58
2023-04-26T09:21:20.393Z,12.51
2023-04-26T09:24:01.903Z,12.48
2023-04-26T09:26:30.162Z,12.73
2023-04-26T09:29:13.947Z,12.96
2023-04-26T09:31:43.696Z,13.15
2023-04-26T09:34:12.645Z,13.05
2023-04-26T09:36:51.527Z,13.02
2023-04-26T09:39:37.459Z,13.10
2023-04-26T09:42:06.326Z,13.33
2023-04-26T09:44:34.916Z,13.46
2023-04-26T09:47:04.901Z,13.28
2023-04-26T09:49:34.481Z,13.35
2023-04-26T09:52:08.337Z,13.26
2023-04-26T09:54:45.468Z,13.22
2023-04-26T09:57:15.086Z,13.22
2023-04-26T09:59:44.800Z,13.21
2023-04-26T10:02:20.729Z,13.20
2023-04-26T10:04:50.390Z,13.62
2023-04-26T10:07:20.037Z,13.91
2023-04-26T10:09:50.653Z,14.08
2023-04-26T10:12:20.185Z,14.22
2023-04-26T10:14:48.749Z,13.81
2023-04-26T10:17:17.424Z,13.92
2023-04-26T10:19:47.177Z,14.15
2023-04-26T10:22:20.748Z,14.33
2023-04-26T10:24:51.711Z,14.29
2023-04-26T10:27:50.283Z,14.49
2023-04-26T10:30:19.409Z,14.80
2023-04-26T10:33:17.770Z,14.83
2023-04-26T10:36:07.031Z,14.66
2023-04-26T10:38:35.852Z,14.67
2023-04-26T10:41:37.530Z,14.85
2023-04-26T10:44:41.227Z,14.93
2023-04-26T10:47:22.043Z,14.94
2023-04-26T10:49:50.348Z,14.91
2023-04-26T10:52:20.502Z,14.86
2023-04-26T10:54:50.808Z,14.75
2023-04-26T10:57:21.670Z,14.51
2023-04-26T11:00:21.049Z,14.51
2023-04-26T11:02:57.648Z,14.36
2023-04-26T11:05:37.637Z,14.16
2023-04-26T11:08:08.994Z,14.23
2023-04-26T11:10:44.362Z,14.58
2023-04-26T11:13:14.018Z,14.77
2023-04-26T11:15:42.236Z,14.98
2023-04-26T11:18:10.539Z,15.15
2023-04-26T11:20:38.707Z,15.37
2023-04-26T11:23:09.742Z,15.65
2023-04-26T11:25:41.448Z,15.57
2023-04-26T11:28:09.661Z,15.76
2023-04-26T11:30:39.290Z,15.66
2023-04-26T11:33:07.934Z,15.58
2023-04-26T11:35:37.407Z,15.55
2023-04-26T11:38:06.781Z,15.53
2023-04-26T11:40:36.768Z,15.47
2023-04-26T11:43:06.670Z,15.58
2023-04-26T11:45:36.336Z,15.72
2023-04-26T11:48:07.529Z,15.87
2023-04-26T11:50:38.197Z,16.02
2023-04-26T11:53:08.169Z,15.87
2023-04-26T11:55:37.079Z,16.10
2023-04-26T11:58:12.690Z,15.91
2023-04-26T12:00:59.165Z,15.98
2023-04-26T12:03:33.740Z,16.02
2023-04-26T12:06:02.446Z,15.91
2023-04-26T12:08:30.849Z,15.83
2023-04-26T12:11:02.503Z,15.86
2023-04-26T12:13:32.393Z,15.90
2023-04-26T12:16:00.597Z,16.04
2023-04-26T12:18:33.842Z,16.42
2023-04-26T12:21:02.784Z,16.77
2023-04-26T12:23:39.593Z,17.05
2023-04-26T12:26:11.257Z,17.27
2023-04-26T12:28:39.759Z,17.11
2023-04-26T12:31:08.468Z,16.45
2023-04-26T12:33:38.310Z,16.61
2023-04-26T12:36:11.386Z,15.80
2023-04-26T12:38:39.632Z,16.38
2023-04-26T12:41:07.957Z,16.39
2023-04-26T12:43:36.858Z,16.37
2023-04-26T12:46:05.619Z,16.43
2023-04-26T12:48:33.826Z,16.63
2023-04-26T12:51:03.395Z,17.00
2023-04-26T12:53:31.611Z,17.46
2023-04-26T12:56:00.194Z,17.34
2023-04-26T12:58:29.262Z,17.12
2023-04-26T13:00:57.575Z,17.13
2023-04-26T13:03:25.953Z,17.12
2023-04-26T13:05:54.241Z,17.09
2023-04-26T13:08:24.503Z,17.38
2023-04-26T13:10:52.798Z,17.44
2023-04-26T13:13:26.299Z,17.51
2023-04-26T13:16:00.870Z,17.36
2023-04-26T13:18:29.191Z,17.47
2023-04-26T13:20:57.403Z,17.49
2023-04-26T13:23:27.027Z,17.38
2023-04-26T13:25:55.284Z,16.74
2023-04-26T13:28:23.581Z,17.05
2023-04-26T13:30:52.571Z,16.94
2023-04-26T13:33:21.518Z,17.12
2023-04-26T13:35:49.974Z,17.97
2023-04-26T13:38:18.499Z,18.11
2023-04-26T13:40:48.416Z,18.09
2023-04-26T13:43:16.680Z,17.43
2023-04-26T13:45:44.991Z,17.77
2023-04-26T13:48:13.502Z,17.73
2023-04-26T13:50:41.892Z,17.52
2023-04-26T13:53:10.501Z,17.63
2023-04-26T13:55:38.761Z,17.91
2023-04-26T13:58:08.418Z,17.85
2023-04-26T14:00:36.772Z,17.92
2023-04-26T14:03:05.304Z,18.32
2023-04-26T14:05:33.579Z,18.93
2023-04-26T14:08:02.289Z,18.71
2023-04-26T14:10:30.612Z,18.60
2023-04-26T14:12:58.777Z,18.42
2023-04-26T14:15:28.937Z,17.95
2023-04-26T14:17:57.157Z,18.13
2023-04-26T14:20:25.496Z,18.20
2023-04-26T14:22:53.769Z,17.91
2023-04-26T14:25:22.078Z,17.41
2023-04-26T14:27:51.855Z,17.12
2023-04-26T14:30:21.624Z,16.34
2023-04-26T14:32:51.473Z,16.66
2023-04-26T14:35:19.823Z,16.52
2023-04-26T14:37:48.172Z,16.45
2023-04-26T14:40:16.507Z,16.65
2023-04-26T14:42:46.218Z,16.88
2023-04-26T14:45:14.901Z,16.96
2023-04-26T14:47:43.193Z,16.37
2023-04-26T14:50:14.219Z,16.44
2023-04-26T14:52:42.470Z,17.50
2023-04-26T14:55:11.102Z,17.60
2023-04-26T14:57:41.987Z,17.43
2023-04-26T15:00:15.503Z,17.43
2023-04-26T15:02:44.011Z,17.26
2023-04-26T15:05:14.780Z,17.10
2023-04-26T15:07:43.245Z,16.81
2023-04-26T15:10:11.860Z,16.77
2023-04-26T15:12:40.229Z,16.52
2023-04-26T15:15:09.577Z,16.63
2023-04-26T15:17:37.992Z,16.55
2023-04-26T15:20:07.510Z,16.35
2023-04-26T15:22:38.688Z,16.31
2023-04-26T15:25:08.538Z,16.11
2023-04-26T15:27:37.266Z,16.26
2023-04-26T15:30:06.276Z,16.23
2023-04-26T15:32:34.658Z,17.44
2023-04-26T15:35:04.085Z,18.23
2023-04-26T15:37:32.360Z,17.84
2023-04-26T15:40:01.991Z,17.92
2023-04-26T15:42:30.471Z,17.49
2023-04-26T15:44:59.249Z,17.15
2023-04-26T15:47:27.544Z,16.67
2023-04-26T15:49:56.036Z,16.57
2023-04-26T15:52:24.325Z,16.45
2023-04-26T15:54:52.904Z,17.06
2023-04-26T15:57:22.674Z,17.20
2023-04-26T15:59:51.298Z,18.40
2023-04-26T16:02:19.850Z,18.98
2023-04-26T16:04:48.204Z,19.60
2023-04-26T16:07:16.894Z,20.08
2023-04-26T16:09:46.104Z,20.54
2023-04-26T16:12:14.379Z,20.05
2023-04-26T16:14:44.063Z,19.31
2023-04-26T16:17:12.432Z,18.54
2023-04-26T16:19:40.744Z,17.53
2023-04-26T16:22:09.012Z,17.09
2023-04-26T16:24:37.223Z,16.62
2023-04-26T16:27:05.911Z,16.02
2023-04-26T16:29:34.258Z,15.95
2023-04-26T16:32:04.021Z,15.48
2023-04-26T16:34:32.254Z,15.51
2023-04-26T16:37:00.459Z,15.34
2023-04-26T16:39:28.948Z,15.23
2023-04-26T16:41:57.623Z,15.17
2023-04-26T16:44:26.063Z,15.06
2023-04-26T16:46:54.450Z,15.04
2023-04-26T16:49:24.256Z,15.03
2023-04-26T16:51:56.475Z,15.03
2023-04-26T16:54:24.658Z,15.00
2023-04-26T16:56:52.927Z,14.69
2023-04-26T16:59:21.219Z,14.94
2023-04-26T17:01:49.463Z,14.93
2023-04-26T17:04:17.895Z,14.78
2023-04-26T17:06:47.597Z,14.59
2023-04-26T17:09:15.773Z,13.71
2023-04-26T17:11:44.963Z,14.37
2023-04-26T17:14:13.450Z,14.25
2023-04-26T17:16:41.853Z,14.12
2023-04-26T17:19:10.278Z,13.95
2023-04-26T17:21:38.499Z,14.10
2023-04-26T17:24:08.812Z,13.89
2023-04-26T17:26:36.981Z,13.92
2023-04-26T17:29:05.136Z,13.76
2023-04-26T17:31:33.300Z,13.65
2023-04-26T17:34:04.062Z,13.49
2023-04-26T17:36:33.099Z,13.43
2023-04-26T17:39:01.426Z,13.21
2023-04-26T17:41:31.234Z,12.91
2023-04-26T17:43:59.503Z,12.67
2023-04-26T17:46:27.813Z,12.51
2023-04-26T17:48:56.731Z,12.64
2023-04-26T17:51:24.912Z,12.39
2023-04-26T17:53:53.118Z,11.38
2023-04-26T17:56:21.385Z,12.10
2023-04-26T17:58:50.930Z,12.00
2023-04-26T18:01:20.211Z,11.92
2023-04-26T18:03:49.293Z,11.81
2023-04-26T18:06:19.458Z,11.76
2023-04-26T18:08:48.161Z,11.41
2023-04-26T18:11:16.378Z,11.69
2023-04-26T18:13:44.583Z,10.85
2023-04-26T18:16:16.912Z,11.54
2023-04-26T18:18:45.289Z,10.91
2023-04-26T18:21:13.452Z,11.33
2023-04-26T18:23:41.695Z,11.23
2023-04-26T18:26:09.950Z,11.04
2023-04-26T18:28:38.291Z,11.23
2023-04-26T18:31:08.189Z,11.27
2023-04-26T18:33:37.856Z,11.31
2023-04-26T18:36:06.503Z,11.14
2023-04-26T18:38:34.917Z,11.00
2023-04-26T18:41:03.463Z,11.12
2023-04-26T18:43:31.680Z,11.10
2023-04-26T18:46:00.114Z,11.00
2023-04-26T18:48:28.390Z,10.96
2023-04-26T18:50:58.003Z,10.50
2023-04-26T18:53:26.171Z,10.86
2023-04-26T18:55:54.488Z,10.85
2023-04-26T18:58:22.852Z,10.84
2023-04-26T19:00:51.137Z,10.82
2023-04-26T19:03:19.819Z,10.79
2023-04-26T19:05:48.308Z,10.78
2023-04-26T19:08:18.540Z,10.73
2023-04-26T19:10:46.749Z,10.67
2023-04-26T19:13:14.910Z,10.70
2023-04-26T19:15:43.196Z,10.68
2023-04-26T19:18:11.439Z,10.56
2023-04-26T19:20:40.287Z,10.61
2023-04-26T19:23:08.489Z,10.51
2023-04-26T19:25:38.090Z,10.44
2023-04-26T19:28:06.523Z,10.19
2023-04-26T19:30:34.790Z,10.26
2023-04-26T19:33:03.426Z,10.39
2023-04-26T19:35:31.611Z,10.32
2023-04-26T19:37:59.806Z,9.98
2023-04-26T19:40:28.044Z,10.08
2023-04-26T19:42:57.687Z,10.10
2023-04-26T19:45:25.906Z,10.04
2023-04-26T19:47:54.077Z,10.18
2023-04-26T19:50:22.269Z,10.16
2023-04-26T19:52:50.620Z,9.89
2023-04-26T19:55:19.139Z,9.98
2023-04-26T19:57:47.986Z,9.84
2023-04-26T20:00:17.966Z,9.78
2023-04-26T20:02:46.344Z,10.11
2023-04-26T20:05:15.048Z,10.07
2023-04-26T20:07:43.300Z,9.53
2023-04-26T20:10:11.864Z,9.92
2023-04-26T20:12:40.633Z,9.82
2023-04-26T20:15:10.278Z,9.85
2023-04-26T20:17:40.024Z,9.83
2023-04-26T20:20:10.289Z,9.67
2023-04-26T20:22:38.717Z,9.62
2023-04-26T20:25:07.984Z,9.56
2023-04-26T20:27:36.402Z,9.77
2023-04-26T20:30:05.009Z,9.66
2023-04-26T20:32:33.443Z,9.82
2023-04-26T20:35:03.209Z,9.73
2023-04-26T20:37:31.582Z,9.78
2023-04-26T20:39:59.768Z,9.53
2023-04-26T20:42:28.726Z,9.67
2023-04-26T20:44:57.955Z,9.51
2023-04-26T20:47:27.477Z,9.45
2023-04-26T20:49:55.737Z,9.42
2023-04-26T20:52:25.742Z,9.40
2023-04-26T20:54:53.951Z,9.42
2023-04-26T20:57:22.188Z,9.07
2023-04-26T20:59:50.377Z,9.32
2023-04-26T21:02:18.756Z,9.15
2023-04-26T21:04:47.181Z,9.34
2023-04-26T21:07:16.061Z,9.30
2023-04-26T21:09:47.258Z,9.05
2023-04-26T21:12:15.738Z,9.34
2023-04-26T21:14:46.025Z,9.31
2023-04-26T21:17:14.257Z,9.32
2023-04-26T21:19:42.368Z,8.95
2023-04-26T21:22:11.879Z,9.38
2023-04-26T21:24:40.830Z,9.24
2023-04-26T21:27:10.882Z,9.39
2023-04-26T21:29:39.329Z,9.43
2023-04-26T21:32:07.588Z,9.54
2023-04-26T21:34:36.662Z,9.44
2023-04-26T21:37:05.395Z,9.58
2023-04-26T21:39:33.726Z,9.58
2023-04-26T21:42:03.764Z,9.65
2023-04-26T21:44:33.599Z,9.54
2023-04-26T21:47:01.996Z,9.49
2023-04-26T21:49:30.389Z,8.63
2023-04-26T21:51:58.544Z,9.46
2023-04-26T21:54:26.716Z,9.40
2023-04-26T21:56:54.797Z,9.39
2023-04-26T21:59:23.027Z,9.39
2023-04-26T22:01:52.676Z,9.09
2023-04-26T22:04:21.034Z,9.44
2023-04-26T22:06:49.336Z,9.42
2023-04-26T22:09:17.598Z,9.47
2023-04-26T22:11:45.755Z,8.18
2023-04-26T22:14:14.262Z,9.50
2023-04-26T22:16:42.712Z,9.45
2023-04-26T22:19:12.535Z,9.47
2023-04-26T22:21:40.954Z,9.39
2023-04-26T22:24:10.501Z,9.45
2023-04-26T22:26:38.647Z,9.46
2023-04-26T22:29:07.178Z,9.40
2023-04-26T22:31:35.359Z,9.37
2023-04-26T22:34:03.613Z,9.39
2023-04-26T22:36:33.686Z,9.49
2023-04-26T22:39:01.976Z,9.44
2023-04-26T22:41:30.189Z,9.45
2023-04-26T22:43:58.407Z,9.48
2023-04-26T22:46:26.753Z,9.48
2023-04-26T22:48:55.069Z,9.35
2023-04-26T22:51:23.361Z,9.12
2023-04-26T22:53:52.975Z,9.46
2023-04-26T22:56:21.134Z,9.34
2023-04-26T22:58:49.238Z,9.23
2023-04-26T23:01:17.497Z,9.19
2023-04-26T23:03:45.907Z,8.95
2023-04-26T23:06:14.056Z,9.01
2023-04-26T23:08:42.109Z,9.19
2023-04-26T23:11:11.807Z,9.22
2023-04-26T23:13:39.901Z,8.52
2023-04-26T23:16:08.932Z,9.11
2023-04-26T23:18:37.328Z,8.84
2023-04-26T23:21:05.893Z,9.08
2023-04-26T23:23:34.039Z,9.02
2023-04-26T23:26:02.210Z,8.84
2023-04-26T23:28:31.864Z,9.00
2023-04-26T23:31:00.027Z,8.12
2023-04-26T23:33:28.187Z,9.01
2023-04-26T23:35:56.942Z,8.83
2023-04-26T23:38:25.102Z,9.01
2023-04-26T23:40:53.170Z,8.75
2023-04-26T23:43:21.369Z,8.83
2023-04-26T23:45:51.371Z,8.72
2023-04-26T23:48:19.596Z,8.60
2023-04-26T23:50:47.727Z,8.68
2023-04-26T23:53:15.897Z,8.56
2023-04-26T23:55:44.127Z,8.60
2023-04-26T23:58:12.321Z,8.51
